Startpagina
METAR-TAF:

METAR-TAF

Vliegvelden :

Pointe-Noire, Congo

Luchthaven Pointe-Noire

breedte: 04-49S, lengte: 011-54E, hoogte: 17 m

Actueel weer

Dit bericht is 34 minuten geleden gemaakt, om 16:00 UTC
Wind 6 kt uit het zuidzuidwesten
Temperatuur 28°C
Vochtigheid 74%
Druk 1009 hPa
Zicht 10 km of meer
Weinig wolken op 1500 ft

METAR: FCPP 251600Z 20006KT 9999 FEW015 28/23 Q1009 NOSIG

Tijdstip: 17:34 (16:34 UTC)

Verwachting

Dit bericht is 5 uur en het 34 minuten geleden gemaakt, om 11:00 UTC
Verwachting geldig van 25 om 12 UTC tot 26 om 12 UTC
Wind 8 kt uit het zuiden
Zicht 10 km of meer
Verspreide wolken op 1600 ft
Wijzigt naar
van 25 om 13 UTC tot 25 om 15 UTC
Verspreide wolken op 1800 ft
Weinig wolken op 3000 ft, Cumulonimbus.
Tijdelijke
van 25 om 17 UTC tot 25 om 21 UTC
onweer
Wijzigt naar
van 25 om 21 UTC tot 25 om 23 UTC
Verspreide wolken op 1300 ft

TAF: FCPP 251100Z 2512/2612 18008KT 9999 SCT016 BECMG 2513/2515 SCT018 FEW030CB TEMPO 2517/2521 TS BECMG 2521/2523 SCT013

Waarnemingen en weersverwachtingen van meer dan 4000 vliegvelden (METAR en TAF).

De beschikbare stations zijn de gele en rode punten op de kaart.

Ga met uw muis naar het station om de naam te zien.

Klik dan om waarnemingen en weersverwachtingen te zien.

kaart wijzigen: klik op de groene knoppen met een zwart kruis om in te zoomen, op de groene knop met een streepje om uit te zoomen of op de groene pijlen voor aangrenzende kaarten.


METAR-TAF: